Time;durP1;ratioP1;P1;durP2;ratioP2;P2;SDS_P1;SDS_P2;PMS_P1;PMS_P2;Temp;Humidity;BMP_temperature;BMP_pressure;BME280_temperature;BME280_humidity;BME280_pressure;Samples;Min_cycle;Max_cycle;Signal;HPM_P1;HPM_P2
2022/11/21 00:01:20;;;;;;;20.23;2.40;;;5.00;99.90;;;;;;5036915;28;20049;-74
2022/11/21 00:03:48;;;;;;;22.25;2.30;;;5.00;99.90;;;;;;5018427;28;20049;-74
2022/11/21 00:06:17;;;;;;;17.75;2.30;;;5.00;99.90;;;;;;5036914;28;20057;-74
2022/11/21 00:08:45;;;;;;;;;;;5.40;99.90;;;;;;5037114;28;20380;-74
2022/11/21 00:11:12;;;;;;;;;;;5.10;99.90;;;;;;5036024;28;19928;-74
2022/11/21 00:13:40;;;;;;;24.77;2.42;;;5.10;99.90;;;;;;5019367;28;20225;-74
2022/11/21 00:16:10;;;;;;;19.70;2.70;;;5.10;99.90;;;;;;5035744;28;20045;-74
2022/11/21 00:18:38;;;;;;;17.77;2.40;;;5.10;99.90;;;;;;5036628;28;20041;-73
2022/11/21 00:21:10;;;;;;;26.25;2.95;;;5.30;99.90;;;;;;5019249;28;20053;-74
2022/11/21 00:23:37;;;;;;;20.42;2.58;;;5.10;99.90;;;;;;5035816;28;20050;-73
2022/11/21 00:26:10;;;;;;;26.30;2.60;;;5.20;99.90;;;;;;5036580;28;20050;-74
2022/11/21 00:28:38;;;;;;;23.00;2.80;;;5.20;99.90;;;;;;5036437;28;20046;-73
2022/11/21 00:31:06;;;;;;;23.77;2.65;;;5.10;99.90;;;;;;5035116;28;20060;-74
2022/11/21 00:33:35;;;;;;;20.77;2.60;;;5.10;99.90;;;;;;5036105;28;20052;-74
2022/11/21 00:36:07;;;;;;;21.63;2.60;;;5.10;99.90;;;;;;5034928;28;20056;-74
2022/11/21 00:38:35;;;;;;;20.85;2.42;;;5.00;99.90;;;;;;5036268;28;20049;-73
2022/11/21 00:41:04;;;;;;;27.70;2.60;;;7.50;99.90;;;;;;5035549;28;20041;-74
2022/11/21 00:43:31;;;;;;;19.63;2.58;;;5.00;99.90;;;;;;5034907;28;20050;-74
2022/11/21 00:46:01;;;;;;;22.02;2.88;;;5.00;99.90;;;;;;5036131;28;20053;-74
2022/11/21 00:48:30;;;;;;;16.63;2.70;;;5.00;99.90;;;;;;5036482;28;20376;-73
2022/11/21 00:50:59;;;;;;;16.15;2.95;;;5.00;99.90;;;;;;5034929;28;20045;-74
2022/11/21 00:53:27;;;;;;;23.80;3.03;;;5.00;99.90;;;;;;5018582;28;20499;-73
2022/11/21 00:55:55;;;;;;;31.23;3.25;;;5.90;99.90;;;;;;5034981;28;20052;-73
2022/11/21 00:58:22;;;;;;;25.55;3.42;;;5.00;99.90;;;;;;5035754;28;20049;-73
2022/11/21 01:00:50;;;;;;;20.20;2.83;;;5.70;99.90;;;;;;5035810;28;20057;-73
2022/11/21 01:03:18;;;;;;;22.45;3.03;;;5.50;99.90;;;;;;5034661;28;20045;-74
2022/11/21 01:05:45;;;;;;;20.65;3.03;;;4.90;99.90;;;;;;5035859;28;20060;-73
2022/11/21 01:08:13;;;;;;;22.25;3.50;;;4.90;99.90;;;;;;5035817;28;20459;-73
2022/11/21 01:10:40;;;;;;;18.50;3.28;;;4.90;99.90;;;;;;5034417;28;20050;-73
2022/11/21 01:13:08;;;;;;;25.48;3.90;;;4.90;99.90;;;;;;5018213;28;20049;-73
2022/11/21 01:15:35;;;;;;;27.58;3.95;;;4.90;99.90;;;;;;5035667;28;20050;-73
2022/11/21 01:18:03;;;;;;;25.40;3.53;;;4.90;99.90;;;;;;5035506;28;20484;-73
2022/11/21 01:20:30;;;;;;;20.52;3.17;;;4.90;99.90;;;;;;5035722;28;20050;-74
2022/11/21 01:22:57;;;;;;;29.30;3.95;;;4.90;99.90;;;;;;5034188;28;20049;-74
2022/11/21 01:25:25;;;;;;;23.05;3.65;;;5.70;99.90;;;;;;5018554;28;20379;-73
2022/11/21 01:27:52;;;;;;;26.45;3.72;;;4.90;99.90;;;;;;5035163;28;20045;-73
2022/11/21 01:30:20;;;;;;;19.95;3.47;;;4.90;99.90;;;;;;5017333;28;20476;-73
2022/11/21 01:32:48;;;;;;;31.08;3.95;;;4.90;99.90;;;;;;5035316;28;20053;-73
2022/11/21 01:35:17;;;;;;;22.65;2.95;;;7.00;99.90;;;;;;5017966;28;20048;-74
2022/11/21 01:37:49;;;;;;;32.22;4.13;;;4.90;99.90;;;;;;5033897;28;20396;-74
2022/11/21 01:40:16;;;;;;;22.70;3.00;;;5.00;99.90;;;;;;5017776;28;20048;-73
2022/11/21 01:43:00;;;;;;;27.05;3.20;;;5.00;99.90;;;;;;5033855;28;20380;-74
2022/11/21 01:45:57;;;;;;;24.55;2.97;;;5.00;99.90;;;;;;5017848;28;20046;-73
2022/11/21 01:48:30;;;;;;;31.23;3.50;;;5.00;99.90;;;;;;5034883;28;20045;-73
2022/11/21 01:51:24;;;;;;;19.25;2.72;;;5.00;99.90;;;;;;5033779;28;20053;-74
2022/11/21 01:54:20;;;;;;;22.52;3.38;;;5.00;99.90;;;;;;5011760;28;20061;-73
2022/11/21 01:56:55;;;;;;;23.48;3.30;;;5.00;99.90;;;;;;5000084;28;20060;-73
2022/11/21 01:59:30;;;;;;;23.10;3.33;;;5.10;99.90;;;;;;5017961;28;20045;-73
2022/11/21 02:02:00;;;;;;;26.33;3.05;;;5.00;99.90;;;;;;5017746;28;20046;-74
2022/11/21 02:04:30;;;;;;;22.60;2.95;;;5.00;99.90;;;;;;5033774;28;20053;-73
2022/11/21 02:07:00;;;;;;;20.13;3.03;;;5.50;99.90;;;;;;5017328;28;20135;-74
2022/11/21 02:09:30;;;;;;;27.83;3.40;;;5.00;99.90;;;;;;5034057;28;20502;-74
2022/11/21 02:12:04;;;;;;;24.70;3.25;;;5.30;99.90;;;;;;5017727;28;20057;-74
2022/11/21 02:14:32;;;;;;;22.75;2.75;;;5.00;99.90;;;;;;5034693;28;20334;-74
2022/11/21 02:17:04;;;;;;;19.70;3.00;;;5.00;99.90;;;;;;5016297;28;20069;-74
2022/11/21 02:19:54;;;;;;;35.13;3.67;;;5.00;99.90;;;;;;5034499;28;20361;-74
2022/11/21 02:22:31;;;;;;;27.08;2.75;;;4.90;99.90;;;;;;5033537;28;20054;-73
2022/11/21 02:25:29;;;;;;;29.30;3.20;;;4.90;99.90;;;;;;5034476;28;20060;-74
2022/11/21 02:28:22;;;;;;;30.20;2.90;;;4.80;99.90;;;;;;5034432;28;20230;-73
2022/11/21 02:30:49;;;;;;;20.77;2.97;;;4.80;99.90;;;;;;5033485;28;20049;-74
2022/11/21 02:33:17;;;;;;;27.33;3.10;;;4.80;99.90;;;;;;5034280;28;20346;-73
2022/11/21 02:35:55;;;;;;;26.67;3.20;;;4.80;99.90;;;;;;5033202;28;20042;-74
2022/11/21 02:38:35;;;;;;;34.67;3.35;;;4.80;99.90;;;;;;5017243;28;20053;-73
2022/11/21 02:41:11;;;;;;;23.45;2.88;;;4.80;99.90;;;;;;5017626;28;20050;-73
2022/11/21 02:43:50;;;;;;;23.10;3.00;;;4.80;99.90;;;;;;4999988;28;20061;-74
2022/11/21 02:46:17;;;;;;;17.85;2.85;;;4.80;99.90;;;;;;5034494;28;20053;-73
2022/11/21 02:48:45;;;;;;;23.92;2.90;;;4.90;99.90;;;;;;5034260;28;20052;-74
2022/11/21 02:51:13;;;;;;;18.67;2.80;;;4.90;99.90;;;;;;5015960;28;20060;-74
2022/11/21 02:53:40;;;;;;;22.02;3.03;;;5.50;99.90;;;;;;5034190;28;20045;-73
2022/11/21 02:56:08;;;;;;;30.95;3.05;;;4.90;99.90;;;;;;5033303;28;20053;-73
2022/11/21 02:58:35;;;;;;;20.45;3.20;;;6.20;99.90;;;;;;5033836;28;20061;-74
2022/11/21 03:01:03;;;;;;;23.23;2.97;;;4.90;99.90;;;;;;5034307;28;20042;-73
2022/11/21 03:03:30;;;;;;;26.17;3.35;;;4.90;99.90;;;;;;5033369;28;20056;-74
2022/11/21 03:05:58;;;;;;;25.60;3.28;;;4.90;99.90;;;;;;5038043;28;20057;-74
2022/11/21 03:08:25;;;;;;;24.40;2.72;;;4.90;99.90;;;;;;5037806;28;20048;-74
2022/11/21 03:10:53;;;;;;;22.65;3.22;;;4.90;99.90;;;;;;5036842;28;20368;-73
2022/11/21 03:13:20;;;;;;;28.83;3.00;;;4.90;99.90;;;;;;5020345;28;20046;-73
2022/11/21 03:15:48;;;;;;;27.63;3.50;;;4.80;99.90;;;;;;5019439;28;20479;-74
2022/11/21 03:18:15;;;;;;;20.60;3.20;;;4.80;99.90;;;;;;5037624;28;20041;-74
2022/11/21 03:20:42;;;;;;;22.05;3.28;;;5.40;99.90;;;;;;5020651;28;20056;-74
2022/11/21 03:23:10;;;;;;;23.38;3.10;;;4.80;99.90;;;;;;5019140;28;20045;-74
2022/11/21 03:25:38;;;;;;;21.02;2.47;;;6.90;99.90;;;;;;5037609;28;20499;-74
2022/11/21 03:28:05;;;;;;;23.60;3.45;;;4.80;99.90;;;;;;5003760;28;20053;-73
2022/11/21 03:30:32;;;;;;;24.60;2.90;;;4.70;99.90;;;;;;5036376;28;20049;-74
2022/11/21 03:33:00;;;;;;;32.78;3.40;;;4.70;99.90;;;;;;5037338;28;20041;-73
2022/11/21 03:35:27;;;;;;;22.13;3.20;;;5.30;99.90;;;;;;5039456;28;20471;-74
2022/11/21 03:37:55;;;;;;;23.70;2.85;;;4.60;99.90;;;;;;5036240;28;20037;-73
2022/11/21 03:40:22;;;;;;;21.55;2.65;;;4.60;99.90;;;;;;5019686;28;20057;-74
2022/11/21 03:42:50;;;;;;;23.67;2.67;;;4.60;99.90;;;;;;5002575;28;20503;-73
2022/11/21 03:45:17;;;;;;;30.27;2.72;;;4.60;99.90;;;;;;5037702;28;20060;-74
2022/11/21 03:47:45;;;;;;;24.77;2.78;;;5.30;99.90;;;;;;5004101;28;20057;-74
2022/11/21 03:50:17;;;;;;;29.23;2.80;;;4.50;99.90;;;;;;5036291;28;20041;-74
2022/11/21 03:52:44;;;;;;;18.65;2.53;;;4.50;99.90;;;;;;5037234;28;20050;-73
2022/11/21 03:55:12;;;;;;;19.60;2.63;;;4.40;99.90;;;;;;5019889;28;20046;-73
2022/11/21 03:57:39;;;;;;;32.90;3.13;;;4.40;99.90;;;;;;5035820;28;20046;-74
2022/11/21 04:00:08;;;;;;;16.48;2.20;;;4.30;99.90;;;;;;5037383;28;20353;-73
2022/11/21 04:02:35;;;;;;;17.20;2.40;;;4.30;99.90;;;;;;5035963;28;20056;-74
2022/11/21 04:05:03;;;;;;;25.20;3.00;;;4.20;99.90;;;;;;5036947;28;20064;-73
2022/11/21 04:07:30;;;;;;;24.13;2.85;;;4.20;99.90;;;;;;5036934;28;20049;-74
2022/11/21 04:09:58;;;;;;;24.02;2.65;;;4.40;99.90;;;;;;5035714;28;20049;-74
2022/11/21 04:12:25;;;;;;;18.80;2.28;;;4.60;99.90;;;;;;5036734;28;20049;-73
2022/11/21 04:14:53;;;;;;;18.42;3.05;;;4.00;99.90;;;;;;5036549;28;20045;-74
2022/11/21 04:17:20;;;;;;;18.23;2.78;;;5.40;99.90;;;;;;5035017;28;20056;-73
2022/11/21 04:19:48;;;;;;;23.25;2.47;;;3.80;99.90;;;;;;5019459;28;20475;-74
2022/11/21 04:22:15;;;;;;;21.00;2.60;;;4.10;99.90;;;;;;5019166;28;20041;-74
2022/11/21 04:24:43;;;;;;;25.90;2.50;;;3.80;99.90;;;;;;5036475;28;20380;-73
2022/11/21 04:27:10;;;;;;;24.35;3.08;;;3.80;99.90;;;;;;5019540;28;20065;-73
2022/11/21 04:29:38;;;;;;;25.98;2.55;;;3.80;99.90;;;;;;5035195;28;20056;-74
2022/11/21 04:32:05;;;;;;;22.40;2.35;;;3.80;99.90;;;;;;5036313;28;20468;-73
2022/11/21 04:34:33;;;;;;;24.75;2.58;;;3.90;99.90;;;;;;5036369;28;20041;-73
2022/11/21 04:37:00;;;;;;;26.33;2.50;;;3.90;99.90;;;;;;5034970;28;20551;-73
2022/11/21 04:39:27;;;;;;;22.52;2.80;;;4.30;99.90;;;;;;5018972;28;20052;-74
2022/11/21 04:41:55;;;;;;;20.75;3.05;;;6.00;99.90;;;;;;5036170;28;20049;-73
2022/11/21 04:44:22;;;;;;;29.02;2.83;;;3.90;99.90;;;;;;5035117;28;20045;-74
2022/11/21 04:46:52;;;;;;;22.33;2.25;;;4.30;99.90;;;;;;5036438;28;20041;-74
2022/11/21 04:49:19;;;;;;;27.40;3.22;;;3.90;99.90;;;;;;5034997;28;20046;-74
2022/11/21 04:51:46;;;;;;;24.98;2.50;;;3.80;99.90;;;;;;5035938;28;20352;-74
2022/11/21 04:54:14;;;;;;;28.63;2.83;;;3.70;99.90;;;;;;5036132;28;20048;-74
2022/11/21 04:56:41;;;;;;;27.75;2.55;;;3.70;99.90;;;;;;5035002;28;20037;-74
2022/11/21 04:59:11;;;;;;;25.02;2.75;;;3.70;99.90;;;;;;5035742;28;20349;-74
2022/11/21 05:01:38;;;;;;;29.83;2.63;;;3.90;99.90;;;;;;5035655;28;20052;-74
2022/11/21 05:04:06;;;;;;;20.65;2.42;;;3.60;99.90;;;;;;5017232;28;20060;-74
2022/11/21 05:06:33;;;;;;;36.55;3.20;;;3.50;99.90;;;;;;5036098;28;20056;-74
2022/11/21 05:09:01;;;;;;;27.50;3.05;;;3.50;99.90;;;;;;5034641;28;20052;-74
2022/11/21 05:14:14;;;;;;;24.98;2.58;;;5.40;99.90;;;;;;5035505;28;20045;-74
2022/11/21 05:16:42;;;;;;;27.27;2.65;;;5.00;99.90;;;;;;5034287;28;20058;-74
2022/11/21 05:19:09;;;;;;;27.27;3.13;;;3.40;99.90;;;;;;5002358;28;20046;-73
2022/11/21 05:21:39;;;;;;;25.95;2.95;;;3.40;99.90;;;;;;5018605;28;20044;-73
2022/11/21 05:24:07;;;;;;;39.95;3.03;;;3.50;99.90;;;;;;5034308;28;20045;-74
2022/11/21 05:26:34;;;;;;;27.30;3.22;;;3.50;99.90;;;;;;5018319;28;20053;-73
2022/11/21 05:29:02;;;;;;;30.65;3.63;;;3.50;99.90;;;;;;5034159;28;20064;-74
2022/11/21 05:31:29;;;;;;;29.48;3.60;;;3.60;99.90;;;;;;5035817;28;20057;-73
2022/11/21 05:33:57;;;;;;;33.67;3.60;;;4.20;99.90;;;;;;5035240;28;20049;-73
2022/11/21 05:36:24;;;;;;;28.10;3.53;;;5.70;99.90;;;;;;5034312;28;20050;-73
2022/11/21 05:38:52;;;;;;;31.63;3.17;;;3.60;99.90;;;;;;5001416;28;20053;-74
2022/11/21 05:41:19;;;;;;;31.85;3.30;;;3.60;99.90;;;;;;5017853;28;20049;-73
2022/11/21 05:43:47;;;;;;;26.73;3.25;;;5.30;99.90;;;;;;5016857;28;20060;-74
2022/11/21 05:46:16;;;;;;;;;;;4.20;99.90;;;;;;5018233;28;20053;-74
2022/11/21 05:48:44;;;;;;;24.52;3.20;;;3.60;99.90;;;;;;5034940;28;20252;-74
2022/11/21 05:51:11;;;;;;;28.10;2.92;;;3.60;99.90;;;;;;5033975;28;20060;-73
2022/11/21 05:53:39;;;;;;;28.35;2.85;;;3.60;99.90;;;;;;5017879;28;20052;-73
2022/11/21 05:56:09;;;;;;;26.60;3.38;;;3.60;99.90;;;;;;5033577;28;20044;-73
2022/11/21 05:58:36;;;;;;;27.70;3.50;;;3.60;99.90;;;;;;5034790;28;20065;-73
2022/11/21 06:01:05;;;;;;;43.92;4.35;;;3.60;99.90;;;;;;5017453;28;20445;-73
2022/11/21 06:03:36;;;;;;;33.58;4.00;;;3.70;99.90;;;;;;5033612;28;20380;-73
2022/11/21 06:06:08;;;;;;;24.45;3.85;;;5.30;99.90;;;;;;5034913;28;20049;-74
2022/11/21 06:08:41;;;;;;;27.98;3.83;;;3.70;99.90;;;;;;5034756;28;20480;-74
2022/11/21 06:11:14;;;;;;;26.15;4.28;;;3.70;99.90;;;;;;5016422;28;20054;-73
2022/11/21 06:13:42;;;;;;;28.65;4.30;;;3.70;99.90;;;;;;5017694;28;20053;-73
2022/11/21 06:16:12;;;;;;;30.92;4.50;;;3.70;99.90;;;;;;5016253;28;20041;-73
2022/11/21 06:18:45;;;;;;;29.23;5.05;;;3.70;99.90;;;;;;5016528;28;20362;-73
2022/11/21 06:21:15;;;;;;;35.13;4.43;;;3.70;99.90;;;;;;5034486;28;20060;-74
2022/11/21 06:23:43;;;;;;;32.92;4.72;;;4.00;99.90;;;;;;5033785;28;20041;-74
2022/11/21 06:26:13;;;;;;;;;;;3.70;99.90;;;;;;5034384;28;20065;-73
2022/11/21 06:28:42;;;;;;;43.47;5.43;;;3.10;99.90;;;;;;5017511;28;19928;-74
2022/11/21 06:31:13;;;;;;;35.15;5.18;;;3.80;99.90;;;;;;5033331;28;20045;-73
2022/11/21 06:33:42;;;;;;;30.17;5.00;;;3.80;99.90;;;;;;5034443;28;20057;-74
2022/11/21 06:36:15;;;;;;;32.95;4.28;;;3.90;99.90;;;;;;5008427;28;20053;-74
2022/11/21 06:38:43;;;;;;;36.08;5.35;;;3.90;99.90;;;;;;5053438;28;20056;-73
2022/11/21 06:41:15;;;;;;;38.92;5.55;;;3.90;99.90;;;;;;5057601;28;20051;-74
2022/11/21 06:43:43;;;;;;;28.48;5.10;;;3.90;99.90;;;;;;5057144;28;20047;-74
2022/11/21 06:46:12;;;;;;;37.58;5.53;;;3.90;99.90;;;;;;5057205;28;20472;-74
2022/11/21 06:48:40;;;;;;;38.17;5.82;;;4.00;99.90;;;;;;5055925;28;20482;-74
2022/11/21 06:51:19;;;;;;;41.38;6.43;;;4.80;99.90;;;;;;5056939;28;20045;-74
2022/11/21 06:53:54;;;;;;;38.05;6.43;;;4.10;99.90;;;;;;5058770;28;20049;-74
2022/11/21 06:56:23;;;;;;;39.22;6.82;;;4.10;99.90;;;;;;5055999;28;20045;-74
2022/11/21 06:58:52;;;;;;;41.60;7.05;;;5.60;99.90;;;;;;5040598;28;20053;-74
2022/11/21 07:01:22;;;;;;;40.33;6.95;;;4.20;99.90;;;;;;5057038;28;20459;-74
2022/11/21 07:03:50;;;;;;;37.25;6.55;;;5.30;99.90;;;;;;5055916;28;20049;-74
2022/11/21 07:06:18;;;;;;;36.72;6.22;;;4.50;99.90;;;;;;5058030;28;20344;-74
2022/11/21 07:08:45;;;;;;;35.90;4.60;;;4.50;99.90;;;;;;5057775;28;20064;-74
2022/11/21 07:11:29;;;;;;;42.95;4.55;;;5.40;99.90;;;;;;5058024;28;20037;-75
2022/11/21 07:13:56;;;;;;;39.17;4.15;;;4.80;99.90;;;;;;5057926;28;20072;-74
2022/11/21 07:16:24;;;;;;;34.13;4.03;;;5.90;99.90;;;;;;5055879;28;20048;-74
2022/11/21 07:18:55;;;;;;;33.90;3.78;;;5.00;99.90;;;;;;5057662;28;20045;-74
2022/11/21 07:21:23;;;;;;;39.88;3.75;;;7.10;99.90;;;;;;5040133;28;20045;-74
2022/11/21 07:23:50;;;;;;;31.40;3.55;;;6.90;99.90;;;;;;5056466;28;20376;-74
2022/11/21 07:26:18;;;;;;;44.67;3.90;;;5.80;99.90;;;;;;5057081;28;20060;-74
2022/11/21 07:28:45;;;;;;;34.80;3.53;;;5.50;99.90;;;;;;5057389;28;20049;-74
2022/11/21 07:31:13;;;;;;;28.67;3.17;;;5.60;99.90;;;;;;5055541;28;20063;-74
2022/11/21 07:33:45;;;;;;;28.15;3.00;;;5.70;99.90;;;;;;5057514;28;20048;-74
2022/11/21 07:36:13;;;;;;;19.70;3.25;;;6.30;99.90;;;;;;5048706;28;20045;-75
2022/11/21 07:38:41;;;;;;;28.25;3.45;;;7.50;99.90;;;;;;5020398;28;20384;-74
2022/11/21 07:41:09;;;;;;;36.75;3.35;;;7.00;99.90;;;;;;5020206;28;20064;-75
2022/11/21 07:43:37;;;;;;;21.35;2.78;;;5.90;99.90;;;;;;5036162;28;20041;-74
2022/11/21 07:46:04;;;;;;;20.77;2.90;;;5.80;99.90;;;;;;5037247;28;20041;-74
2022/11/21 07:48:32;;;;;;;23.50;2.85;;;6.00;99.90;;;;;;5019985;28;20041;-74
2022/11/21 07:51:04;;;;;;;23.40;2.70;;;6.00;99.90;;;;;;5017501;28;20045;-75
2022/11/21 07:53:31;;;;;;;23.65;2.90;;;6.00;99.90;;;;;;5036984;28;20391;-74
2022/11/21 07:55:59;;;;;;;19.33;2.63;;;6.20;99.90;;;;;;5018840;28;20080;-74
2022/11/21 07:58:26;;;;;;;20.42;3.05;;;6.80;99.90;;;;;;5019950;28;20068;-74
2022/11/21 08:00:54;;;;;;;18.20;2.83;;;8.20;99.90;;;;;;5035536;28;20053;-74
2022/11/21 08:03:24;;;;;;;27.63;3.35;;;8.50;99.90;;;;;;5035955;28;20048;-74
2022/11/21 08:05:51;;;;;;;23.83;3.33;;;7.00;99.90;;;;;;5036516;28;20050;-75
2022/11/21 08:08:19;;;;;;;32.92;3.72;;;6.90;99.90;;;;;;5036366;28;20048;-72
2022/11/21 08:10:46;;;;;;;41.20;4.68;;;6.20;99.90;;;;;;5035384;28;20120;-74
2022/11/21 08:13:14;;;;;;;20.13;3.15;;;6.30;99.90;;;;;;5019042;28;20384;-76
2022/11/21 08:15:41;;;;;;;20.67;3.40;;;6.30;99.90;;;;;;5034879;28;20045;-76
2022/11/21 08:18:14;;;;;;;18.85;3.22;;;6.40;99.90;;;;;;5036120;28;20060;-77
2022/11/21 08:20:42;;;;;;;27.45;2.90;;;6.80;99.90;;;;;;5019233;28;20052;-76
2022/11/21 08:23:15;;;;;;;31.05;3.47;;;6.60;99.90;;;;;;4999924;28;20060;-76
2022/11/21 08:25:43;;;;;;;21.20;3.40;;;8.60;99.90;;;;;;5016389;28;20049;-77
2022/11/21 08:28:12;;;;;;;26.05;3.72;;;6.60;99.90;;;;;;5015884;28;20060;-77
2022/11/21 08:30:39;;;;;;;;;;;6.60;99.90;;;;;;5015421;28;20053;-77
2022/11/21 08:33:07;;;;;;;19.58;2.72;;;6.70;99.90;;;;;;5016448;28;19933;-76
2022/11/21 08:35:39;;;;;;;17.55;2.47;;;6.70;99.90;;;;;;5016121;28;20050;-76
2022/11/21 08:38:07;;;;;;;20.00;2.80;;;8.70;99.90;;;;;;5019234;28;20049;-76
2022/11/21 08:40:35;;;;;;;19.85;2.88;;;9.00;99.90;;;;;;4999146;28;20473;-76
2022/11/21 08:43:06;;;;;;;;;;;8.40;99.90;;;;;;5015172;28;20061;-76
2022/11/21 08:45:36;;;;;;;14.55;2.30;;;6.90;99.90;;;;;;5016686;28;20268;-76
2022/11/21 08:48:07;;;;;;;27.27;2.97;;;9.80;99.90;;;;;;4999139;28;20045;-76
2022/11/21 08:50:37;;;;;;;19.95;3.85;;;7.10;99.90;;;;;;4982324;28;20057;-76
2022/11/21 08:53:06;;;;;;;;;;;7.20;99.90;;;;;;5016727;28;20045;-76
2022/11/21 08:55:33;;;;;;;29.08;2.60;;;7.20;99.90;;;;;;4999510;28;19928;-77
2022/11/21 08:58:00;;;;;;;24.15;2.92;;;9.00;99.90;;;;;;4997655;28;20049;-76
2022/11/21 09:00:28;;;;;;;24.73;3.38;;;7.20;99.90;;;;;;5016370;28;20049;-76
2022/11/21 09:02:55;;;;;;;25.83;2.70;;;7.20;99.90;;;;;;4997643;28;20057;-76
2022/11/21 09:05:32;;;;;;;23.38;2.38;;;7.20;99.90;;;;;;4999631;28;20053;-76
2022/11/21 09:08:02;;;;;;;26.05;2.83;;;7.30;99.90;;;;;;4999119;28;20388;-76
2022/11/21 09:10:30;;;;;;;19.00;2.72;;;7.30;99.90;;;;;;4996943;28;20050;-77
2022/11/21 09:13:01;;;;;;;24.65;2.72;;;9.90;99.90;;;;;;5028983;28;20041;-77
2022/11/21 09:18:14;;;;;;;16.02;2.35;;;8.30;99.90;;;;;;5028042;28;20468;-77
2022/11/21 09:20:43;;;;;;;25.42;3.08;;;9.70;99.90;;;;;;5010840;28;20472;-74
2022/11/21 09:23:15;;;;;;;28.98;3.38;;;9.80;99.90;;;;;;5016497;28;20045;-77
2022/11/21 09:25:44;;;;;;;23.25;2.90;;;7.60;99.90;;;;;;5017289;28;20065;-74
2022/11/21 09:28:14;;;;;;;30.40;3.38;;;9.50;99.90;;;;;;5017692;28;20068;-73
2022/11/21 09:30:41;;;;;;;;;;;8.30;99.90;;;;;;5034686;28;20052;-73
2022/11/21 09:33:12;;;;;;;32.40;3.22;;;7.80;99.90;;;;;;5035175;28;19925;-74
2022/11/21 09:35:39;;;;;;;20.33;2.70;;;7.90;99.90;;;;;;5017280;28;20041;-73
2022/11/21 09:38:07;;;;;;;23.83;3.25;;;7.90;99.90;;;;;;5018487;28;20516;-74
2022/11/21 09:40:35;;;;;;;32.45;3.78;;;7.90;99.90;;;;;;5035394;28;20052;-74
2022/11/21 09:43:22;;;;;;;27.65;3.40;;;7.90;99.90;;;;;;5016522;28;20100;-73
2022/11/21 09:45:51;;;;;;;23.17;3.30;;;8.00;99.90;;;;;;5017798;28;20045;-73
2022/11/21 09:48:57;;;;;;;28.60;3.67;;;8.00;99.90;;;;;;5035445;28;20049;-74
2022/11/21 09:51:28;;;;;;;32.55;3.35;;;8.10;99.90;;;;;;4994055;28;20059;-74
2022/11/21 09:54:01;;;;;;;34.00;3.88;;;8.80;99.90;;;;;;5029129;28;20053;-73
2022/11/21 09:56:31;;;;;;;24.27;3.75;;;8.00;99.90;;;;;;5033881;28;20049;-72
2022/11/21 09:59:14;;;;;;;30.83;3.38;;;8.80;99.90;;;;;;5017572;28;20087;-73
2022/11/21 10:01:41;;;;;;;25.35;3.15;;;8.00;99.90;;;;;;5035002;28;20042;-73
2022/11/21 10:04:09;;;;;;;37.78;3.65;;;8.70;99.90;;;;;;5016804;28;20049;-73
2022/11/21 10:06:49;;;;;;;19.20;3.35;;;8.20;99.90;;;;;;5034712;28;20049;-73
2022/11/21 10:09:31;;;;;;;34.15;4.13;;;8.00;99.90;;;;;;5033549;28;20054;-71
2022/11/21 10:15:08;;;;;;;32.72;3.70;;;8.70;99.90;;;;;;5033871;28;20480;-72
2022/11/21 10:18:08;;;;;;;41.45;5.00;;;8.00;99.90;;;;;;5033575;28;20045;-73
2022/11/21 10:21:01;;;;;;;36.40;4.72;;;8.00;99.90;;;;;;5000833;28;20049;-73
2022/11/21 10:24:07;;;;;;;40.00;5.07;;;8.00;99.90;;;;;;5033485;28;20050;-73
2022/11/21 10:27:09;;;;;;;40.13;5.43;;;8.00;99.90;;;;;;5034433;28;20049;-73
2022/11/21 10:29:39;;;;;;;42.08;5.15;;;8.00;99.90;;;;;;5033309;28;20061;-73
2022/11/21 10:32:24;;;;;;;35.17;4.22;;;10.00;99.90;;;;;;5034295;28;20460;-72
2022/11/21 10:35:00;;;;;;;38.72;4.63;;;8.00;99.90;;;;;;5034375;28;20472;-72
2022/11/21 10:37:27;;;;;;;41.42;4.72;;;8.10;99.90;;;;;;5033058;28;20067;-73
2022/11/21 10:39:59;;;;;;;32.83;4.00;;;8.60;99.90;;;;;;5034377;28;20052;-73
2022/11/21 10:42:35;;;;;;;32.15;4.55;;;8.20;99.90;;;;;;5033505;28;20283;-73
2022/11/21 10:45:15;;;;;;;35.45;4.72;;;8.20;99.90;;;;;;5033740;28;20038;-73
2022/11/21 10:47:51;;;;;;;43.13;4.97;;;8.30;99.90;;;;;;5034008;28;20049;-73
2022/11/21 10:50:45;;;;;;;43.20;4.70;;;8.30;99.90;;;;;;5033001;28;20056;-72
2022/11/21 10:56:16;;;;;;;35.20;4.53;;;8.30;99.90;;;;;;5032805;28;20376;-71
2022/11/21 10:58:48;;;;;;;37.15;4.47;;;8.40;99.90;;;;;;5033696;28;20053;-73
2022/11/21 11:01:22;;;;;;;28.17;3.90;;;8.30;99.90;;;;;;5033962;28;20052;-72
2022/11/21 11:04:17;;;;;;;34.67;4.30;;;8.30;99.90;;;;;;5032866;28;20041;-72
2022/11/21 11:07:26;;;;;;;32.85;4.30;;;8.30;99.90;;;;;;5034028;28;20037;-72
2022/11/21 11:10:23;;;;;;;36.95;3.97;;;8.30;99.90;;;;;;5032822;28;20049;-72
2022/11/21 11:16:09;;;;;;;35.45;4.03;;;8.40;99.90;;;;;;5032734;28;20041;-73
2022/11/21 11:18:57;;;;;;;32.60;4.13;;;8.40;99.90;;;;;;5031003;28;20049;-72
2022/11/21 11:21:42;;;;;;;44.53;5.00;;;8.40;99.90;;;;;;5033954;28;20042;-74
2022/11/21 11:24:13;;;;;;;44.13;5.00;;;10.10;99.90;;;;;;5030675;28;21134;-73
2022/11/21 11:26:46;;;;;;;37.83;4.90;;;8.50;99.90;;;;;;5019777;28;20045;-73
2022/11/21 11:29:21;;;;;;;42.28;4.82;;;8.60;99.90;;;;;;5036315;28;20046;-73
2022/11/21 11:31:57;;;;;;;56.08;6.38;;;8.60;99.90;;;;;;5002948;28;20457;-70
2022/11/21 11:34:38;;;;;;;46.28;5.82;;;8.60;99.90;;;;;;5017723;28;20042;-70
2022/11/21 11:37:14;;;;;;;42.97;5.05;;;8.60;99.90;;;;;;5016489;28;20042;-73
2022/11/21 11:40:05;;;;;;;36.17;5.13;;;8.70;99.90;;;;;;5017699;28;20046;-73
2022/11/21 11:48:44;;;;;;;35.88;5.35;;;8.80;99.90;;;;;;5020259;28;20049;-74
2022/11/21 11:51:41;;;;;;;53.10;5.68;;;8.80;99.90;;;;;;5037075;28;20045;-74
2022/11/21 11:54:20;;;;;;;49.80;5.35;;;9.00;99.90;;;;;;5037043;28;20056;-73
2022/11/21 11:56:49;;;;;;;57.45;5.70;;;9.70;99.90;;;;;;5036300;28;20049;-73
2022/11/21 11:59:48;;;;;;;44.10;6.00;;;9.90;99.90;;;;;;5036835;28;20072;-73
2022/11/21 12:02:22;;;;;;;49.42;5.35;;;9.00;99.90;;;;;;4985584;28;20361;-73
2022/11/21 12:04:58;;;;;;;45.83;5.63;;;9.00;99.90;;;;;;5036797;28;20064;-73
2022/11/21 12:07:32;;;;;;;45.53;5.25;;;9.10;99.90;;;;;;5036022;28;20053;-73
2022/11/21 12:10:28;;;;;;;48.20;5.70;;;9.70;99.90;;;;;;5035513;28;20101;-73
2022/11/21 12:13:10;;;;;;;47.90;5.53;;;9.20;99.90;;;;;;5019419;28;20041;-73
2022/11/21 12:15:49;;;;;;;50.33;5.95;;;9.20;99.90;;;;;;5036181;28;20042;-72
2022/11/21 12:18:19;;;;;;;38.95;4.70;;;9.70;99.90;;;;;;5022869;28;20376;-73
2022/11/21 12:21:01;;;;;;;40.80;4.60;;;9.80;99.90;;;;;;5016969;28;20038;-73
2022/11/21 12:24:00;;;;;;;42.13;4.60;;;9.40;99.90;;;;;;5015644;28;20042;-73
2022/11/21 12:27:02;;;;;;;43.30;5.28;;;9.40;99.90;;;;;;4999691;28;20054;-73
2022/11/21 12:29:51;;;;;;;40.50;4.28;;;9.40;99.90;;;;;;5026600;28;20057;-73
2022/11/21 12:32:32;;;;;;;46.13;5.38;;;9.50;99.90;;;;;;5036328;28;20045;-73
2022/11/21 12:35:21;;;;;;;44.90;5.93;;;9.50;99.90;;;;;;5036540;28;20049;-73
2022/11/21 12:38:44;;;;;;;35.58;5.15;;;9.50;99.90;;;;;;5034253;28;20045;-73
2022/11/21 12:44:44;;;;;;;39.50;5.13;;;9.50;99.90;;;;;;5034936;28;20048;-74
2022/11/21 12:47:16;;;;;;;34.33;4.53;;;9.40;99.90;;;;;;5036081;28;20495;-73
2022/11/21 12:56:17;;;;;;;29.73;4.07;;;9.30;99.90;;;;;;5034400;28;20058;-74
2022/11/21 12:58:50;;;;;;;31.60;4.07;;;9.40;99.90;;;;;;5034952;28;20049;-73
2022/11/21 13:01:43;;;;;;;31.35;4.18;;;10.10;99.90;;;;;;5035644;28;20048;-73
2022/11/21 13:04:33;;;;;;;38.58;4.38;;;9.20;99.90;;;;;;5017386;28;20060;-73
2022/11/21 13:07:02;;;;;;;35.38;3.80;;;9.20;99.90;;;;;;5035632;28;20160;-73
2022/11/21 13:09:40;;;;;;;38.03;4.40;;;9.20;99.90;;;;;;5034366;28;20053;-73
2022/11/21 13:12:34;;;;;;;22.73;2.95;;;9.10;99.90;;;;;;5035432;28;20049;-73
2022/11/21 13:15:23;;;;;;;20.45;2.92;;;9.10;99.90;;;;;;5035439;28;20053;-72
2022/11/21 13:17:56;;;;;;;22.70;3.05;;;9.10;99.90;;;;;;5034359;28;20050;-73
2022/11/21 13:20:44;;;;;;;24.77;3.30;;;9.00;99.90;;;;;;5035439;28;20049;-74
2022/11/21 13:23:37;;;;;;;23.20;3.00;;;9.00;99.90;;;;;;5034126;28;20041;-73
2022/11/21 13:26:23;;;;;;;23.98;3.03;;;8.90;99.90;;;;;;5017723;28;20041;-72
2022/11/21 13:29:09;;;;;;;22.33;3.03;;;8.80;99.90;;;;;;5035373;28;20049;-73
2022/11/21 13:31:37;;;;;;;16.48;2.53;;;8.80;99.90;;;;;;5035101;28;20048;-72
2022/11/21 13:34:33;;;;;;;16.77;2.00;;;8.70;99.90;;;;;;5017976;28;20374;-73
2022/11/21 13:37:02;;;;;;;11.35;2.03;;;8.60;99.90;;;;;;5033712;28;20519;-74
2022/11/21 13:39:32;;;;;;;17.77;2.40;;;10.40;99.90;;;;;;5034796;28;20056;-77
2022/11/21 13:44:50;;;;;;;13.20;2.22;;;8.40;99.90;;;;;;5034869;28;20349;-74
2022/11/21 13:47:35;;;;;;;;;;;9.10;99.90;;;;;;5035297;28;20361;-74
2022/11/21 13:50:42;;;;;;;14.65;1.55;;;8.30;99.90;;;;;;5033995;28;20279;-73
2022/11/21 13:53:31;;;;;;;12.73;1.77;;;8.20;99.90;;;;;;5017296;28;20053;-73